createdAt,value
2023-05-05T00:01:47.278Z,101190.19
2023-05-05T00:04:22.576Z,101150.94
2023-05-05T00:06:55.098Z,101192.81
2023-05-05T00:09:27.261Z,101198.16
2023-05-05T00:11:59.388Z,101187.47
2023-05-05T00:14:31.421Z,101199.03
2023-05-05T00:17:04.215Z,101211.47
2023-05-05T00:19:37.443Z,101211.44
2023-05-05T00:22:09.724Z,101202.53
2023-05-05T00:24:41.709Z,101220.28
2023-05-05T00:27:13.871Z,101214.91
2023-05-05T00:29:45.859Z,101215.75
2023-05-05T00:32:17.926Z,101221.09
2023-05-05T00:34:49.954Z,101216.63
2023-05-05T00:37:21.948Z,101215.69
2023-05-05T00:39:54.611Z,101206.75
2023-05-05T00:42:27.324Z,101210.31
2023-05-05T00:44:59.374Z,101223.63
2023-05-05T00:47:31.379Z,101225.38
2023-05-05T00:50:09.618Z,101232.47
2023-05-05T00:52:41.981Z,101223.59
2023-05-05T00:55:14.168Z,101220.00
2023-05-05T00:57:46.735Z,101227.13
2023-05-05T01:00:18.735Z,101229.81
2023-05-05T01:02:52.262Z,101228.91
2023-05-05T01:05:27.816Z,101230.63
2023-05-05T01:08:43.953Z,101225.28
2023-05-05T01:11:46.066Z,101194.03
2023-05-05T01:14:30.951Z,101234.19
2023-05-05T01:17:18.092Z,101223.44
2023-05-05T01:20:11.895Z,101214.50
2023-05-05T01:23:01.161Z,101239.47
2023-05-05T01:26:07.653Z,101237.66
2023-05-05T01:29:03.707Z,101235.03
2023-05-05T01:31:53.877Z,101230.63
2023-05-05T01:34:37.285Z,101221.78
2023-05-05T01:37:22.659Z,101171.88
2023-05-05T01:40:04.100Z,101232.47
2023-05-05T01:42:41.146Z,101230.69
2023-05-05T01:45:17.134Z,101217.34
2023-05-05T01:47:49.840Z,101222.69
2023-05-05T01:50:24.730Z,101218.19
2023-05-05T01:52:57.824Z,101194.09
2023-05-05T01:55:33.633Z,101231.50
2023-05-05T01:58:08.102Z,101221.69
2023-05-05T02:00:42.161Z,101201.06
2023-05-05T02:03:17.406Z,101214.41
2023-05-05T02:05:53.196Z,101216.25
2023-05-05T02:08:27.429Z,101240.22
2023-05-05T02:11:00.827Z,101235.78
2023-05-05T02:13:33.638Z,101243.72
2023-05-05T02:16:07.937Z,101242.75
2023-05-05T02:18:42.475Z,101251.63
2023-05-05T02:21:17.785Z,101245.34
2023-05-05T02:23:52.017Z,101213.97
2023-05-05T02:26:27.399Z,101216.59
2023-05-05T02:29:22.213Z,101262.06
2023-05-05T02:32:02.179Z,101209.41
2023-05-05T02:34:40.979Z,101215.56
2023-05-05T02:37:19.803Z,101265.41
2023-05-05T02:40:04.724Z,101272.47
2023-05-05T02:42:41.736Z,101255.47
2023-05-05T02:45:19.742Z,101285.69
2023-05-05T02:47:51.746Z,101277.66
2023-05-05T02:50:23.810Z,101289.16
2023-05-05T02:52:56.231Z,101285.56
2023-05-05T02:55:46.851Z,101242.63
2023-05-05T02:58:31.083Z,101240.78
2023-05-05T03:01:24.292Z,101243.44
2023-05-05T03:04:01.831Z,101276.44
2023-05-05T03:06:42.632Z,101240.69
2023-05-05T03:09:36.967Z,101279.03
2023-05-05T03:12:17.024Z,101273.69
2023-05-05T03:14:54.715Z,101245.91
2023-05-05T03:17:30.884Z,101241.38
2023-05-05T03:20:07.816Z,101242.22
2023-05-05T03:22:40.042Z,101292.16
2023-05-05T03:25:12.054Z,101300.91
2023-05-05T03:27:44.101Z,101301.78
2023-05-05T03:30:16.140Z,101298.13
2023-05-05T03:32:48.587Z,101305.25
2023-05-05T03:35:21.172Z,101305.22
2023-05-05T03:37:53.166Z,101306.94
2023-05-05T03:40:36.209Z,101299.75
2023-05-05T03:43:12.658Z,101249.75
2023-05-05T03:45:44.674Z,101297.91
2023-05-05T03:48:16.674Z,101299.63
2023-05-05T03:50:49.274Z,101308.50
2023-05-05T03:53:21.418Z,101315.56
2023-05-05T03:55:53.381Z,101253.47
2023-05-05T03:58:25.395Z,101314.66
2023-05-05T04:00:57.821Z,101318.09
2023-05-05T04:03:29.972Z,101268.88
2023-05-05T04:06:02.155Z,101310.88
2023-05-05T04:08:34.149Z,101314.41
2023-05-05T04:11:06.195Z,101319.63
2023-05-05T04:13:38.267Z,101323.94
2023-05-05T04:16:10.361Z,101290.81
2023-05-05T04:18:42.471Z,101324.84
2023-05-05T04:21:14.524Z,101322.06
2023-05-05T04:23:46.462Z,101327.50
2023-05-05T04:26:18.465Z,101323.91
2023-05-05T04:28:50.553Z,101324.81
2023-05-05T04:31:22.660Z,101324.72
2023-05-05T04:33:55.465Z,101327.34
2023-05-05T04:36:27.706Z,101336.31
2023-05-05T04:38:59.800Z,101331.84
2023-05-05T04:41:32.944Z,101295.09
2023-05-05T04:44:05.106Z,101333.59
2023-05-05T04:46:37.099Z,101312.16
2023-05-05T04:49:09.451Z,101323.72
2023-05-05T04:51:42.631Z,101327.34
2023-05-05T04:54:14.852Z,101324.53
2023-05-05T04:56:47.078Z,101293.28
2023-05-05T04:59:19.146Z,101326.34
2023-05-05T05:01:51.510Z,101278.03
2023-05-05T05:04:25.849Z,101322.81
2023-05-05T05:06:59.250Z,101326.34
2023-05-05T05:09:32.327Z,101314.78
2023-05-05T05:12:06.006Z,101312.25
2023-05-05T05:14:40.031Z,101280.91
2023-05-05T05:17:12.038Z,101280.06
2023-05-05T05:19:44.053Z,101316.72
2023-05-05T05:22:16.016Z,101316.66
2023-05-05T05:24:48.150Z,101306.84
2023-05-05T05:27:20.261Z,101322.91
2023-05-05T05:29:52.242Z,101280.00
2023-05-05T05:32:24.223Z,101329.25
2023-05-05T05:34:56.461Z,101322.28
2023-05-05T05:37:31.614Z,101282.09
2023-05-05T05:40:05.418Z,101330.44
2023-05-05T05:42:37.698Z,101293.06
2023-05-05T05:45:10.274Z,101336.94
2023-05-05T05:47:42.260Z,101354.78
2023-05-05T05:50:14.596Z,101365.44
2023-05-05T05:52:47.084Z,101381.34
2023-05-05T05:55:19.038Z,101378.53
2023-05-05T05:57:51.023Z,101391.94
2023-05-05T06:00:23.168Z,101355.25
2023-05-05T06:02:55.788Z,101403.50
2023-05-05T06:05:28.012Z,101409.69
2023-05-05T06:08:00.081Z,101411.53
2023-05-05T06:10:32.376Z,101374.06
2023-05-05T06:13:04.595Z,101405.53
2023-05-05T06:15:36.691Z,101370.78
2023-05-05T06:18:08.795Z,101414.75
2023-05-05T06:20:40.836Z,101406.09
2023-05-05T06:23:12.815Z,101419.50
2023-05-05T06:25:44.865Z,101413.25
2023-05-05T06:28:17.012Z,101422.19
2023-05-05T06:30:48.963Z,101423.13
2023-05-05T06:33:20.956Z,101414.31
2023-05-05T06:35:53.054Z,101370.66
2023-05-05T06:38:25.340Z,101411.13
2023-05-05T06:40:58.677Z,101405.94
2023-05-05T06:43:31.774Z,101397.31
2023-05-05T06:46:03.913Z,101397.47
2023-05-05T06:48:36.074Z,101360.13
2023-05-05T06:51:10.097Z,101365.50
2023-05-05T06:53:42.100Z,101406.59
2023-05-05T06:56:14.070Z,101401.38
2023-05-05T06:58:46.561Z,101403.25
2023-05-05T07:01:18.660Z,101406.81
2023-05-05T07:03:51.121Z,101412.16
2023-05-05T07:06:23.508Z,101407.78
2023-05-05T07:08:56.304Z,101412.19
2023-05-05T07:11:28.495Z,101413.19
2023-05-05T07:14:00.684Z,101408.03
2023-05-05T07:16:34.747Z,101406.28
2023-05-05T07:19:06.913Z,101406.38
2023-05-05T07:21:39.764Z,101417.13
2023-05-05T07:24:11.858Z,101418.06
2023-05-05T07:26:44.069Z,101428.84
2023-05-05T07:29:16.347Z,101427.94
2023-05-05T07:31:48.583Z,101425.19
2023-05-05T07:34:20.745Z,101427.78
2023-05-05T07:36:52.801Z,101425.03
2023-05-05T07:39:24.801Z,101420.50
2023-05-05T07:41:56.782Z,101423.97
2023-05-05T07:44:28.824Z,101418.50
2023-05-05T07:47:00.910Z,101398.00
2023-05-05T07:49:32.932Z,101413.28
2023-05-05T07:52:05.056Z,101409.81
2023-05-05T07:54:37.192Z,101376.84
2023-05-05T07:57:09.178Z,101413.41
2023-05-05T07:59:43.499Z,101383.13
2023-05-05T08:02:15.606Z,101391.16
2023-05-05T08:04:47.697Z,101398.34
2023-05-05T08:07:19.687Z,101364.41
2023-05-05T08:09:51.717Z,101407.31
2023-05-05T08:12:23.726Z,101403.88
2023-05-05T08:14:56.123Z,101405.78
2023-05-05T08:17:28.149Z,101404.09
2023-05-05T08:20:00.242Z,101410.34
2023-05-05T08:22:32.272Z,101411.28
2023-05-05T08:25:05.143Z,101402.41
2023-05-05T08:27:42.557Z,101402.44
2023-05-05T08:30:16.652Z,101406.88
2023-05-05T08:32:48.728Z,101411.31
2023-05-05T08:35:21.436Z,101416.66
2023-05-05T08:37:53.881Z,101405.97
2023-05-05T08:40:36.586Z,101329.25
2023-05-05T08:43:08.574Z,101375.63
2023-05-05T08:45:42.096Z,101411.34
2023-05-05T08:48:19.452Z,101409.56
2023-05-05T08:51:01.977Z,101407.72
2023-05-05T08:53:52.499Z,101408.63
2023-05-05T08:56:33.357Z,101374.72
2023-05-05T08:59:05.568Z,101417.53
2023-05-05T09:01:38.197Z,101419.31
2023-05-05T09:04:11.066Z,101402.38
2023-05-05T09:06:43.142Z,101408.63
2023-05-05T09:09:15.286Z,101406.81
2023-05-05T09:11:47.541Z,101408.59
2023-05-05T09:14:19.661Z,101400.59
2023-05-05T09:16:51.675Z,101364.91
2023-05-05T09:19:23.805Z,101406.88
2023-05-05T09:21:56.150Z,101406.00
2023-05-05T09:24:28.132Z,101405.09
2023-05-05T09:27:01.690Z,101410.44
2023-05-05T09:29:33.736Z,101415.81
2023-05-05T09:32:08.829Z,101416.69
2023-05-05T09:34:41.365Z,101386.31
2023-05-05T09:37:27.666Z,101386.28
2023-05-05T09:40:01.259Z,101421.06
2023-05-05T09:42:33.520Z,101413.91
2023-05-05T09:45:17.686Z,101421.06
2023-05-05T09:47:50.476Z,101409.47
2023-05-05T09:50:23.530Z,101420.16
2023-05-05T09:53:02.046Z,101363.06
2023-05-05T09:55:36.019Z,101412.13
2023-05-05T09:58:28.774Z,101404.94
2023-05-05T10:01:01.707Z,101409.41
2023-05-05T10:03:33.649Z,101401.34
2023-05-05T10:06:07.897Z,101410.28
2023-05-05T10:08:40.308Z,101403.16
2023-05-05T10:11:13.838Z,101404.03
2023-05-05T10:13:46.456Z,101394.19
2023-05-05T10:16:20.395Z,101406.69
2023-05-05T10:18:52.677Z,101411.13
2023-05-05T10:21:26.509Z,101409.25
2023-05-05T10:24:16.654Z,101411.91
2023-05-05T10:26:52.074Z,101414.53
2023-05-05T10:29:40.988Z,101418.00
2023-05-05T10:35:24.334Z,101423.25
2023-05-05T10:37:58.391Z,101417.06
2023-05-05T10:40:31.843Z,101387.56
2023-05-05T10:43:05.028Z,101423.28
2023-05-05T10:45:38.428Z,101432.19
2023-05-05T10:48:27.370Z,101431.19
2023-05-05T10:51:27.713Z,101438.28
2023-05-05T10:54:28.715Z,101439.97
2023-05-05T10:57:03.087Z,101402.41
2023-05-05T10:59:38.357Z,101429.09
2023-05-05T11:02:27.189Z,101434.34
2023-05-05T11:05:25.973Z,101451.03
2023-05-05T11:08:27.551Z,101456.09
2023-05-05T11:11:01.572Z,101463.97
2023-05-05T11:13:33.707Z,101466.38
2023-05-05T11:16:27.042Z,101468.81
2023-05-05T11:18:59.039Z,101455.16
2023-05-05T11:22:04.358Z,101460.41
2023-05-05T11:24:36.872Z,101460.44
2023-05-05T11:27:10.239Z,101464.97
2023-05-05T11:30:04.680Z,101467.59
2023-05-05T11:32:36.762Z,101455.22
2023-05-05T11:35:09.017Z,101467.69
2023-05-05T11:37:42.672Z,101418.53
2023-05-05T11:40:31.176Z,101457.06
2023-05-05T11:43:07.518Z,101452.69
2023-05-05T11:45:39.731Z,101466.94
2023-05-05T11:48:28.562Z,101471.41
2023-05-05T11:51:03.656Z,101462.59
2023-05-05T11:53:36.023Z,101447.44
2023-05-05T11:56:10.228Z,101462.63
2023-05-05T11:58:42.849Z,101448.53
2023-05-05T12:01:17.334Z,101463.63
2023-05-05T12:03:49.431Z,101463.47
2023-05-05T12:06:21.678Z,101468.69
2023-05-05T12:08:55.262Z,101473.13
2023-05-05T12:11:27.524Z,101478.38
2023-05-05T12:14:10.973Z,101430.13
2023-05-05T12:17:01.467Z,101456.88
2023-05-05T12:19:33.732Z,101411.38
2023-05-05T12:22:05.718Z,101414.13
2023-05-05T12:24:37.731Z,101452.63
2023-05-05T12:27:11.850Z,101443.72
2023-05-05T12:29:43.938Z,101451.81
2023-05-05T12:32:28.298Z,101437.53
2023-05-05T12:35:01.084Z,101430.53
2023-05-05T12:37:33.383Z,101453.75
2023-05-05T12:40:06.723Z,101406.41
2023-05-05T12:42:40.081Z,101450.13
2023-05-05T12:45:17.957Z,101459.06
2023-05-05T12:47:49.979Z,101453.69
2023-05-05T12:50:32.574Z,101442.06
2023-05-05T12:53:04.616Z,101442.16
2023-05-05T12:55:37.835Z,101432.44
2023-05-05T12:58:09.919Z,101391.41
2023-05-05T13:00:41.885Z,101413.78
2023-05-05T13:03:20.846Z,101402.97
2023-05-05T13:05:52.913Z,101398.47
2023-05-05T13:08:44.935Z,101446.69
2023-05-05T13:11:17.054Z,101443.13
2023-05-05T13:13:49.072Z,101416.19
2023-05-05T13:16:21.220Z,101467.00
2023-05-05T13:18:53.724Z,101463.25
2023-05-05T13:21:26.073Z,101470.38
2023-05-05T13:24:08.182Z,101469.53
2023-05-05T13:26:52.523Z,101458.84
2023-05-05T13:29:29.497Z,101480.31
2023-05-05T13:32:03.372Z,101475.75
2023-05-05T13:34:35.508Z,101476.44
2023-05-05T13:37:07.502Z,101483.53
2023-05-05T13:39:39.646Z,101486.16
2023-05-05T13:42:11.695Z,101459.97
2023-05-05T13:44:43.650Z,101502.75
2023-05-05T13:47:18.673Z,101505.31
2023-05-05T13:49:50.692Z,101484.56
2023-05-05T13:52:22.666Z,101478.13
2023-05-05T13:54:55.047Z,101474.63
2023-05-05T13:57:27.226Z,101474.56
2023-05-05T13:59:59.171Z,101470.06
2023-05-05T14:02:31.509Z,101471.16
2023-05-05T14:05:03.549Z,101437.41
2023-05-05T14:07:35.518Z,101469.13
2023-05-05T14:10:08.677Z,101462.25
2023-05-05T14:12:40.808Z,101457.19
2023-05-05T14:15:12.946Z,101449.34
2023-05-05T14:17:45.417Z,101435.97
2023-05-05T14:20:17.447Z,101446.69
2023-05-05T14:22:49.531Z,101441.28
2023-05-05T14:25:21.988Z,101445.72
2023-05-05T14:27:55.587Z,101445.78
2023-05-05T14:30:27.616Z,101433.28
2023-05-05T14:32:59.655Z,101446.69
2023-05-05T14:35:31.876Z,101442.25
2023-05-05T14:38:03.852Z,101452.03
2023-05-05T14:40:35.940Z,101402.00
2023-05-05T14:43:07.937Z,101431.53
2023-05-05T14:45:40.206Z,101431.44
2023-05-05T14:48:12.303Z,101438.44
2023-05-05T14:50:46.374Z,101433.09
2023-05-05T14:53:19.598Z,101431.25
2023-05-05T14:55:51.686Z,101429.25
2023-05-05T14:58:24.702Z,101438.19
2023-05-05T15:00:56.760Z,101426.59
2023-05-05T15:03:28.849Z,101389.09
2023-05-05T15:06:00.995Z,101435.59
2023-05-05T15:08:33.106Z,101440.94
2023-05-05T15:11:06.335Z,101389.16
2023-05-05T15:13:41.879Z,101379.50
2023-05-05T15:16:14.046Z,101432.41
2023-05-05T15:18:46.679Z,101427.97
2023-05-05T15:21:18.888Z,101430.69
2023-05-05T15:23:50.858Z,101434.28
2023-05-05T15:26:23.955Z,101403.88
2023-05-05T15:28:56.439Z,101428.91
2023-05-05T15:31:28.551Z,101423.66
2023-05-05T15:34:00.723Z,101372.72
2023-05-05T15:36:32.862Z,101409.34
2023-05-05T15:39:05.007Z,101374.47
2023-05-05T15:41:37.078Z,101412.84
2023-05-05T15:44:12.556Z,101416.38
2023-05-05T15:46:44.627Z,101391.28
2023-05-05T15:49:17.617Z,101422.63
2023-05-05T15:51:49.619Z,101419.88
2023-05-05T15:54:22.027Z,101396.72
2023-05-05T15:56:54.264Z,101414.56
2023-05-05T15:59:26.853Z,101416.28
2023-05-05T16:01:58.828Z,101410.06
2023-05-05T16:04:31.088Z,101410.03
2023-05-05T16:07:03.391Z,101404.59
2023-05-05T16:09:35.458Z,101409.97
2023-05-05T16:12:07.412Z,101403.66
2023-05-05T16:14:39.422Z,101404.59
2023-05-05T16:17:11.572Z,101396.63
2023-05-05T16:19:43.663Z,101403.72
2023-05-05T16:22:16.394Z,101391.22
2023-05-05T16:24:48.377Z,101398.44
2023-05-05T16:27:20.522Z,101384.09
2023-05-05T16:29:53.511Z,101387.72
2023-05-05T16:32:25.557Z,101408.22
2023-05-05T16:34:57.706Z,101406.50
2023-05-05T16:37:29.706Z,101412.84
2023-05-05T16:40:04.379Z,101407.59
2023-05-05T16:42:36.311Z,101409.44
2023-05-05T16:45:09.433Z,101398.91
2023-05-05T16:47:41.736Z,101390.94
2023-05-05T16:50:13.793Z,101398.03
2023-05-05T16:52:46.094Z,101402.50
2023-05-05T16:55:18.476Z,101367.66
2023-05-05T16:57:50.459Z,101384.69
2023-05-05T17:00:22.580Z,101401.63
2023-05-05T17:02:55.158Z,101397.19
2023-05-05T17:05:27.340Z,101375.75
2023-05-05T17:08:00.601Z,101393.53
2023-05-05T17:10:32.630Z,101404.19
2023-05-05T17:13:04.767Z,101404.16
2023-05-05T17:15:37.649Z,101388.97
2023-05-05T17:18:09.832Z,101395.19
2023-05-05T17:20:42.788Z,101400.53
2023-05-05T17:23:16.293Z,101399.66
2023-05-05T17:25:48.310Z,101352.31
2023-05-05T17:28:20.260Z,101382.72
2023-05-05T17:30:52.323Z,101393.41
2023-05-05T17:33:24.333Z,101395.16
2023-05-05T17:35:56.646Z,101387.16
2023-05-05T17:38:28.623Z,101392.41
2023-05-05T17:41:00.614Z,101354.84
2023-05-05T17:43:32.578Z,101398.50
2023-05-05T17:46:04.742Z,101392.25
2023-05-05T17:48:36.776Z,101397.59
2023-05-05T17:51:08.800Z,101385.09
2023-05-05T17:53:40.889Z,101386.91
2023-05-05T17:56:12.885Z,101356.44
2023-05-05T17:58:44.922Z,101332.41
2023-05-05T18:01:25.206Z,101387.72
2023-05-05T18:03:57.508Z,101388.56
2023-05-05T18:06:29.613Z,101341.22
2023-05-05T18:09:01.602Z,101389.34
2023-05-05T18:11:34.055Z,101390.25
2023-05-05T18:14:06.134Z,101391.03
2023-05-05T18:16:38.191Z,101392.78
2023-05-05T18:19:10.476Z,101408.72
2023-05-05T18:21:42.542Z,101401.56
2023-05-05T18:24:20.409Z,101399.72
2023-05-05T18:26:53.123Z,101404.16
2023-05-05T18:29:25.487Z,101401.47
2023-05-05T18:31:57.461Z,101370.13
2023-05-05T18:34:29.602Z,101414.75
2023-05-05T18:37:02.357Z,101385.13
2023-05-05T18:39:35.606Z,101419.03
2023-05-05T18:42:08.289Z,101406.47
2023-05-05T18:44:40.354Z,101425.16
2023-05-05T18:47:12.373Z,101387.56
2023-05-05T18:49:45.505Z,101425.03
2023-05-05T18:52:17.507Z,101425.91
2023-05-05T18:54:49.515Z,101424.88
2023-05-05T18:57:22.091Z,101423.94
2023-05-05T18:59:54.263Z,101431.94
2023-05-05T19:02:26.951Z,101389.88
2023-05-05T19:04:59.016Z,101431.84
2023-05-05T19:07:35.519Z,101435.38
2023-05-05T19:10:09.273Z,101437.06
2023-05-05T19:12:41.525Z,101435.22
2023-05-05T19:15:13.597Z,101443.16
2023-05-05T19:17:47.547Z,101406.34
2023-05-05T19:20:20.118Z,101448.31
2023-05-05T19:22:52.131Z,101447.81
2023-05-05T19:25:24.111Z,101454.44
2023-05-05T19:27:56.971Z,101456.94
2023-05-05T19:30:29.086Z,101463.00
2023-05-05T19:33:01.147Z,101456.75
2023-05-05T19:35:35.058Z,101466.47
2023-05-05T19:38:07.180Z,101463.72
2023-05-05T19:40:40.204Z,101461.91
2023-05-05T19:43:12.168Z,101464.53
2023-05-05T19:45:44.264Z,101463.59
2023-05-05T19:48:16.539Z,101425.91
2023-05-05T19:50:48.744Z,101458.03
2023-05-05T19:53:20.778Z,101479.28
2023-05-05T19:55:52.784Z,101464.88
2023-05-05T19:58:24.769Z,101472.06
2023-05-05T20:00:56.799Z,101473.78
2023-05-05T20:03:28.904Z,101473.78
2023-05-05T20:06:00.923Z,101460.31
2023-05-05T20:08:34.108Z,101474.47
2023-05-05T20:11:06.099Z,101475.28
2023-05-05T20:13:39.077Z,101424.16
2023-05-05T20:16:11.889Z,101480.44
2023-05-05T20:18:44.448Z,101476.78
2023-05-05T20:21:17.367Z,101464.19
2023-05-05T20:23:49.543Z,101473.97
2023-05-05T20:26:22.150Z,101471.19
2023-05-05T20:28:54.640Z,101473.72
2023-05-05T20:31:26.944Z,101472.75
2023-05-05T20:33:58.904Z,101483.28
2023-05-05T20:36:30.922Z,101472.69
2023-05-05T20:39:02.995Z,101467.38
2023-05-05T20:41:36.335Z,101472.69
2023-05-05T20:44:11.348Z,101468.22
2023-05-05T20:46:43.370Z,101463.72
2023-05-05T20:49:15.504Z,101471.66
2023-05-05T20:51:47.871Z,101472.56
2023-05-05T20:54:19.889Z,101474.38
2023-05-05T20:56:53.172Z,101469.00
2023-05-05T20:59:27.931Z,101428.56
2023-05-05T21:02:00.047Z,101466.19
2023-05-05T21:04:32.450Z,101471.59
2023-05-05T21:07:05.232Z,101470.69
2023-05-05T21:09:37.520Z,101477.84
2023-05-05T21:12:09.576Z,101467.09
2023-05-05T21:14:45.326Z,101449.06
2023-05-05T21:17:17.413Z,101464.41
2023-05-05T21:19:49.583Z,101464.31
2023-05-05T21:22:22.107Z,101467.88
2023-05-05T21:24:55.446Z,101470.41
2023-05-05T21:27:27.477Z,101459.78
2023-05-05T21:29:59.479Z,101455.22
2023-05-05T21:32:31.629Z,101415.78
2023-05-05T21:35:06.043Z,101458.84
2023-05-05T21:37:39.158Z,101455.31
2023-05-05T21:40:14.126Z,101453.53
2023-05-05T21:42:46.218Z,101452.69
2023-05-05T21:45:18.468Z,101453.53
2023-05-05T21:47:50.887Z,101411.44
2023-05-05T21:50:22.942Z,101447.25
2023-05-05T21:52:55.303Z,101446.31
2023-05-05T21:55:27.719Z,101447.19
2023-05-05T21:57:59.666Z,101440.22
2023-05-05T22:00:31.735Z,101458.03
2023-05-05T22:03:04.640Z,101455.34
2023-05-05T22:05:36.738Z,101449.19
2023-05-05T22:08:08.808Z,101446.53
2023-05-05T22:10:40.807Z,101406.22
2023-05-05T22:13:14.166Z,101446.56
2023-05-05T22:15:47.474Z,101446.53
2023-05-05T22:18:19.703Z,101444.72
2023-05-05T22:20:52.255Z,101444.72
2023-05-05T22:23:24.436Z,101407.13
2023-05-05T22:25:57.266Z,101393.72
2023-05-05T22:28:29.920Z,101442.88
2023-05-05T22:31:02.407Z,101442.91
2023-05-05T22:33:36.248Z,101431.22
2023-05-05T22:36:09.038Z,101431.28
2023-05-05T22:38:41.065Z,101438.41
2023-05-05T22:41:13.187Z,101438.34
2023-05-05T22:43:45.277Z,101390.94
2023-05-05T22:46:17.320Z,101410.66
2023-05-05T22:48:49.330Z,101439.19
2023-05-05T22:51:21.694Z,101437.31
2023-05-05T22:53:53.695Z,101424.88
2023-05-05T22:56:25.800Z,101436.31
2023-05-05T22:58:57.916Z,101433.59
2023-05-05T23:01:30.547Z,101442.47
2023-05-05T23:04:02.749Z,101434.47
2023-05-05T23:06:34.868Z,101433.59
2023-05-05T23:09:07.284Z,101431.81
2023-05-05T23:11:39.345Z,101437.94
2023-05-05T23:14:11.638Z,101441.56
2023-05-05T23:16:43.720Z,101394.13
2023-05-05T23:19:16.104Z,101439.75
2023-05-05T23:21:53.154Z,101428.13
2023-05-05T23:24:26.674Z,101441.50
2023-05-05T23:27:03.833Z,101443.25
2023-05-05T23:29:35.843Z,101395.78
2023-05-05T23:32:09.153Z,101437.81
2023-05-05T23:34:41.210Z,101441.31
2023-05-05T23:37:14.829Z,101445.81
2023-05-05T23:39:46.949Z,101445.81
2023-05-05T23:42:18.898Z,101438.66
2023-05-05T23:44:50.970Z,101430.66
2023-05-05T23:47:22.935Z,101404.53
2023-05-05T23:49:55.165Z,101435.03
2023-05-05T23:52:27.226Z,101437.69
2023-05-05T23:54:59.195Z,101433.22
2023-05-05T23:57:31.176Z,101426.88
